sensor_id;sensor_type;location;lat;lon;timestamp;temperature;humidity
20171;DHT22;10245;51.344;6.620;2023-04-24T00:01:05;11.00;80.90
20171;DHT22;10245;51.344;6.620;2023-04-24T00:03:29;11.00;81.50
20171;DHT22;10245;51.344;6.620;2023-04-24T00:05:56;11.10;78.70
20171;DHT22;10245;51.344;6.620;2023-04-24T00:08:21;11.10;79.90
20171;DHT22;10245;51.344;6.620;2023-04-24T00:10:45;11.10;79.90
20171;DHT22;10245;51.344;6.620;2023-04-24T00:13:09;11.10;78.90
20171;DHT22;10245;51.344;6.620;2023-04-24T00:15:32;11.00;79.30
20171;DHT22;10245;51.344;6.620;2023-04-24T00:17:55;11.10;79.50
20171;DHT22;10245;51.344;6.620;2023-04-24T00:20:19;11.00;80.10
20171;DHT22;10245;51.344;6.620;2023-04-24T00:22:44;11.00;81.00
20171;DHT22;10245;51.344;6.620;2023-04-24T00:25:08;11.00;80.80
20171;DHT22;10245;51.344;6.620;2023-04-24T00:27:31;11.00;80.50
20171;DHT22;10245;51.344;6.620;2023-04-24T00:29:55;10.90;79.70
20171;DHT22;10245;51.344;6.620;2023-04-24T00:32:18;10.90;78.90
20171;DHT22;10245;51.344;6.620;2023-04-24T00:34:43;10.80;79.30
20171;DHT22;10245;51.344;6.620;2023-04-24T00:37:06;10.70;79.50
20171;DHT22;10245;51.344;6.620;2023-04-24T00:39:33;10.50;79.50
20171;DHT22;10245;51.344;6.620;2023-04-24T00:41:57;10.50;79.60
20171;DHT22;10245;51.344;6.620;2023-04-24T00:44:21;10.40;79.90
20171;DHT22;10245;51.344;6.620;2023-04-24T00:46:44;10.30;80.40
20171;DHT22;10245;51.344;6.620;2023-04-24T00:49:09;10.30;81.10
20171;DHT22;10245;51.344;6.620;2023-04-24T00:51:33;10.20;81.00
20171;DHT22;10245;51.344;6.620;2023-04-24T00:53:58;10.20;80.20
20171;DHT22;10245;51.344;6.620;2023-04-24T00:56:24;10.20;80.50
20171;DHT22;10245;51.344;6.620;2023-04-24T00:58:47;10.20;80.90
20171;DHT22;10245;51.344;6.620;2023-04-24T01:01:11;10.10;81.20
20171;DHT22;10245;51.344;6.620;2023-04-24T01:03:35;10.10;80.80
20171;DHT22;10245;51.344;6.620;2023-04-24T01:06:00;10.00;81.10
20171;DHT22;10245;51.344;6.620;2023-04-24T01:08:25;10.00;80.60
20171;DHT22;10245;51.344;6.620;2023-04-24T01:10:51;10.00;81.10
20171;DHT22;10245;51.344;6.620;2023-04-24T01:13:16;9.90;81.80
20171;DHT22;10245;51.344;6.620;2023-04-24T01:15:40;9.80;81.70
20171;DHT22;10245;51.344;6.620;2023-04-24T01:18:04;9.80;81.60
20171;DHT22;10245;51.344;6.620;2023-04-24T01:20:27;9.70;81.90
20171;DHT22;10245;51.344;6.620;2023-04-24T01:22:54;9.80;82.00
20171;DHT22;10245;51.344;6.620;2023-04-24T01:25:18;9.80;81.90
20171;DHT22;10245;51.344;6.620;2023-04-24T01:27:41;9.80;82.40
20171;DHT22;10245;51.344;6.620;2023-04-24T01:30:07;9.80;82.40
20171;DHT22;10245;51.344;6.620;2023-04-24T01:32:31;9.80;82.50
20171;DHT22;10245;51.344;6.620;2023-04-24T01:34:54;9.80;82.70
20171;DHT22;10245;51.344;6.620;2023-04-24T01:37:18;9.90;81.90
20171;DHT22;10245;51.344;6.620;2023-04-24T01:39:43;9.80;82.20
20171;DHT22;10245;51.344;6.620;2023-04-24T01:42:07;9.80;83.00
20171;DHT22;10245;51.344;6.620;2023-04-24T01:44:30;9.80;82.60
20171;DHT22;10245;51.344;6.620;2023-04-24T01:46:55;9.80;82.70
20171;DHT22;10245;51.344;6.620;2023-04-24T01:49:18;9.80;82.50
20171;DHT22;10245;51.344;6.620;2023-04-24T01:51:42;9.70;82.70
20171;DHT22;10245;51.344;6.620;2023-04-24T01:54:05;9.70;82.60
20171;DHT22;10245;51.344;6.620;2023-04-24T01:56:33;9.70;82.40
20171;DHT22;10245;51.344;6.620;2023-04-24T01:58:57;9.70;82.90
20171;DHT22;10245;51.344;6.620;2023-04-24T02:01:21;9.70;82.60
20171;DHT22;10245;51.344;6.620;2023-04-24T02:03:46;9.70;82.90
20171;DHT22;10245;51.344;6.620;2023-04-24T02:06:10;9.60;83.10
20171;DHT22;10245;51.344;6.620;2023-04-24T02:08:33;9.60;82.50
20171;DHT22;10245;51.344;6.620;2023-04-24T02:10:56;9.60;82.60
20171;DHT22;10245;51.344;6.620;2023-04-24T02:13:21;9.60;82.90
20171;DHT22;10245;51.344;6.620;2023-04-24T02:15:44;9.60;82.90
20171;DHT22;10245;51.344;6.620;2023-04-24T02:18:07;9.60;82.80
20171;DHT22;10245;51.344;6.620;2023-04-24T02:20:33;9.50;82.90
20171;DHT22;10245;51.344;6.620;2023-04-24T02:22:57;9.60;82.80
20171;DHT22;10245;51.344;6.620;2023-04-24T02:25:20;9.60;83.30
20171;DHT22;10245;51.344;6.620;2023-04-24T02:27:44;9.60;82.90
20171;DHT22;10245;51.344;6.620;2023-04-24T02:30:10;9.60;83.10
20171;DHT22;10245;51.344;6.620;2023-04-24T02:32:34;9.50;83.00
20171;DHT22;10245;51.344;6.620;2023-04-24T02:34:57;9.50;83.10
20171;DHT22;10245;51.344;6.620;2023-04-24T02:37:21;9.50;82.90
20171;DHT22;10245;51.344;6.620;2023-04-24T02:39:44;9.60;83.30
20171;DHT22;10245;51.344;6.620;2023-04-24T02:42:07;9.50;83.10
20171;DHT22;10245;51.344;6.620;2023-04-24T02:44:31;9.60;83.40
20171;DHT22;10245;51.344;6.620;2023-04-24T02:46:56;9.60;83.40
20171;DHT22;10245;51.344;6.620;2023-04-24T02:49:19;9.60;83.40
20171;DHT22;10245;51.344;6.620;2023-04-24T02:51:42;9.60;82.90
20171;DHT22;10245;51.344;6.620;2023-04-24T02:54:06;9.60;83.30
20171;DHT22;10245;51.344;6.620;2023-04-24T02:56:29;9.70;83.20
20171;DHT22;10245;51.344;6.620;2023-04-24T02:58:54;9.60;83.20
20171;DHT22;10245;51.344;6.620;2023-04-24T03:01:17;9.60;83.00
20171;DHT22;10245;51.344;6.620;2023-04-24T03:03:42;9.60;83.00
20171;DHT22;10245;51.344;6.620;2023-04-24T03:06:06;9.60;83.50
20171;DHT22;10245;51.344;6.620;2023-04-24T03:08:29;9.60;83.40
20171;DHT22;10245;51.344;6.620;2023-04-24T03:10:53;9.70;83.00
20171;DHT22;10245;51.344;6.620;2023-04-24T03:13:16;9.70;83.00
20171;DHT22;10245;51.344;6.620;2023-04-24T03:15:39;9.70;83.10
20171;DHT22;10245;51.344;6.620;2023-04-24T03:18:03;9.70;83.10
20171;DHT22;10245;51.344;6.620;2023-04-24T03:20:28;9.70;83.20
20171;DHT22;10245;51.344;6.620;2023-04-24T03:22:52;9.80;83.10
20171;DHT22;10245;51.344;6.620;2023-04-24T03:25:16;9.80;82.80
20171;DHT22;10245;51.344;6.620;2023-04-24T03:27:39;9.70;83.00
20171;DHT22;10245;51.344;6.620;2023-04-24T03:30:26;9.70;82.70
20171;DHT22;10245;51.344;6.620;2023-04-24T03:32:53;9.70;83.00
20171;DHT22;10245;51.344;6.620;2023-04-24T03:35:21;9.70;83.00
20171;DHT22;10245;51.344;6.620;2023-04-24T03:37:48;9.70;83.00
20171;DHT22;10245;51.344;6.620;2023-04-24T03:40:34;9.70;82.60
20171;DHT22;10245;51.344;6.620;2023-04-24T03:43:05;9.70;82.50
20171;DHT22;10245;51.344;6.620;2023-04-24T03:45:29;9.70;82.50
20171;DHT22;10245;51.344;6.620;2023-04-24T03:47:52;9.70;82.50
20171;DHT22;10245;51.344;6.620;2023-04-24T03:50:16;9.70;82.60
20171;DHT22;10245;51.344;6.620;2023-04-24T03:52:39;9.80;82.50
20171;DHT22;10245;51.344;6.620;2023-04-24T03:55:06;9.70;82.70
20171;DHT22;10245;51.344;6.620;2023-04-24T03:57:36;9.70;82.50
20171;DHT22;10245;51.344;6.620;2023-04-24T04:00:07;9.70;82.50
20171;DHT22;10245;51.344;6.620;2023-04-24T04:02:35;9.70;82.60
20171;DHT22;10245;51.344;6.620;2023-04-24T04:04:59;9.70;82.80
20171;DHT22;10245;51.344;6.620;2023-04-24T04:07:22;9.80;81.90
20171;DHT22;10245;51.344;6.620;2023-04-24T04:09:46;9.70;82.10
20171;DHT22;10245;51.344;6.620;2023-04-24T04:12:11;9.70;82.10
20171;DHT22;10245;51.344;6.620;2023-04-24T04:14:35;9.70;82.60
20171;DHT22;10245;51.344;6.620;2023-04-24T04:16:58;9.70;82.60
20171;DHT22;10245;51.344;6.620;2023-04-24T04:19:22;9.70;82.30
20171;DHT22;10245;51.344;6.620;2023-04-24T04:21:46;9.70;82.20
20171;DHT22;10245;51.344;6.620;2023-04-24T04:24:34;9.70;81.70
20171;DHT22;10245;51.344;6.620;2023-04-24T04:27:00;9.60;82.30
20171;DHT22;10245;51.344;6.620;2023-04-24T04:29:29;9.70;81.90
20171;DHT22;10245;51.344;6.620;2023-04-24T04:31:53;9.60;82.00
20171;DHT22;10245;51.344;6.620;2023-04-24T04:34:17;9.70;81.80
20171;DHT22;10245;51.344;6.620;2023-04-24T04:36:41;9.60;81.70
20171;DHT22;10245;51.344;6.620;2023-04-24T04:39:19;9.60;82.00
20171;DHT22;10245;51.344;6.620;2023-04-24T04:41:58;9.60;81.90
20171;DHT22;10245;51.344;6.620;2023-04-24T04:44:30;9.60;82.00
20171;DHT22;10245;51.344;6.620;2023-04-24T04:46:54;9.60;81.80
20171;DHT22;10245;51.344;6.620;2023-04-24T04:49:22;9.60;82.00
20171;DHT22;10245;51.344;6.620;2023-04-24T04:51:46;9.60;82.10
20171;DHT22;10245;51.344;6.620;2023-04-24T04:54:10;9.50;82.30
20171;DHT22;10245;51.344;6.620;2023-04-24T04:56:33;9.50;82.10
20171;DHT22;10245;51.344;6.620;2023-04-24T04:58:57;9.50;82.10
20171;DHT22;10245;51.344;6.620;2023-04-24T05:01:23;9.50;82.50
20171;DHT22;10245;51.344;6.620;2023-04-24T05:03:50;9.50;83.40
20171;DHT22;10245;51.344;6.620;2023-04-24T05:06:13;9.30;85.10
20171;DHT22;10245;51.344;6.620;2023-04-24T05:08:38;9.00;87.30
20171;DHT22;10245;51.344;6.620;2023-04-24T05:11:06;8.90;87.50
20171;DHT22;10245;51.344;6.620;2023-04-24T05:13:30;8.90;88.30
20171;DHT22;10245;51.344;6.620;2023-04-24T05:16:12;8.80;88.40
20171;DHT22;10245;51.344;6.620;2023-04-24T05:18:37;8.90;88.70
20171;DHT22;10245;51.344;6.620;2023-04-24T05:21:02;8.70;88.40
20171;DHT22;10245;51.344;6.620;2023-04-24T05:23:25;8.80;88.60
20171;DHT22;10245;51.344;6.620;2023-04-24T05:25:50;8.80;88.70
20171;DHT22;10245;51.344;6.620;2023-04-24T05:28:15;8.80;88.20
20171;DHT22;10245;51.344;6.620;2023-04-24T05:30:43;8.90;88.50
20171;DHT22;10245;51.344;6.620;2023-04-24T05:33:11;9.00;87.80
20171;DHT22;10245;51.344;6.620;2023-04-24T05:35:37;9.00;87.50
20171;DHT22;10245;51.344;6.620;2023-04-24T05:38:00;9.00;87.10
20171;DHT22;10245;51.344;6.620;2023-04-24T05:40:24;8.90;87.00
20171;DHT22;10245;51.344;6.620;2023-04-24T05:42:47;9.00;87.00
20171;DHT22;10245;51.344;6.620;2023-04-24T05:45:11;9.00;86.30
20171;DHT22;10245;51.344;6.620;2023-04-24T05:47:38;9.00;86.30
20171;DHT22;10245;51.344;6.620;2023-04-24T05:50:01;9.00;86.40
20171;DHT22;10245;51.344;6.620;2023-04-24T05:52:26;9.00;86.40
20171;DHT22;10245;51.344;6.620;2023-04-24T05:54:50;9.00;86.60
20171;DHT22;10245;51.344;6.620;2023-04-24T05:57:18;9.00;87.50
20171;DHT22;10245;51.344;6.620;2023-04-24T05:59:47;9.00;88.50
20171;DHT22;10245;51.344;6.620;2023-04-24T06:02:13;8.90;88.50
20171;DHT22;10245;51.344;6.620;2023-04-24T06:04:36;8.90;88.90
20171;DHT22;10245;51.344;6.620;2023-04-24T06:07:00;8.80;89.20
20171;DHT22;10245;51.344;6.620;2023-04-24T06:09:25;8.80;89.10
20171;DHT22;10245;51.344;6.620;2023-04-24T06:11:49;8.90;88.80
20171;DHT22;10245;51.344;6.620;2023-04-24T06:14:17;8.90;89.30
20171;DHT22;10245;51.344;6.620;2023-04-24T06:16:59;8.90;89.30
20171;DHT22;10245;51.344;6.620;2023-04-24T06:19:29;9.00;88.90
20171;DHT22;10245;51.344;6.620;2023-04-24T06:21:52;8.90;88.20
20171;DHT22;10245;51.344;6.620;2023-04-24T06:24:16;8.90;88.50
20171;DHT22;10245;51.344;6.620;2023-04-24T06:26:41;8.90;89.00
20171;DHT22;10245;51.344;6.620;2023-04-24T06:29:04;8.90;89.10
20171;DHT22;10245;51.344;6.620;2023-04-24T06:31:30;8.80;89.10
20171;DHT22;10245;51.344;6.620;2023-04-24T06:33:58;8.80;89.50
20171;DHT22;10245;51.344;6.620;2023-04-24T06:36:22;8.60;89.50
20171;DHT22;10245;51.344;6.620;2023-04-24T06:38:46;8.70;90.60
20171;DHT22;10245;51.344;6.620;2023-04-24T06:41:09;8.60;90.20
20171;DHT22;10245;51.344;6.620;2023-04-24T06:43:34;8.60;90.40
20171;DHT22;10245;51.344;6.620;2023-04-24T06:45:58;8.70;90.70
20171;DHT22;10245;51.344;6.620;2023-04-24T06:48:22;8.70;90.40
20171;DHT22;10245;51.344;6.620;2023-04-24T06:50:45;8.70;90.80
20171;DHT22;10245;51.344;6.620;2023-04-24T06:53:09;8.60;90.70
20171;DHT22;10245;51.344;6.620;2023-04-24T06:55:35;8.70;91.40
20171;DHT22;10245;51.344;6.620;2023-04-24T06:57:59;8.70;91.00
20171;DHT22;10245;51.344;6.620;2023-04-24T07:00:24;8.60;90.90
20171;DHT22;10245;51.344;6.620;2023-04-24T07:02:48;8.50;90.50
20171;DHT22;10245;51.344;6.620;2023-04-24T07:05:11;8.60;90.90
20171;DHT22;10245;51.344;6.620;2023-04-24T07:07:35;8.60;90.70
20171;DHT22;10245;51.344;6.620;2023-04-24T07:09:59;8.50;90.50
20171;DHT22;10245;51.344;6.620;2023-04-24T07:12:23;8.40;90.30
20171;DHT22;10245;51.344;6.620;2023-04-24T07:14:46;8.40;90.30
20171;DHT22;10245;51.344;6.620;2023-04-24T07:17:11;8.30;89.90
20171;DHT22;10245;51.344;6.620;2023-04-24T07:19:35;8.20;89.60
20171;DHT22;10245;51.344;6.620;2023-04-24T07:21:58;8.20;90.50
20171;DHT22;10245;51.344;6.620;2023-04-24T07:24:22;8.00;89.60
20171;DHT22;10245;51.344;6.620;2023-04-24T07:26:47;8.00;89.90
20171;DHT22;10245;51.344;6.620;2023-04-24T07:29:12;7.90;90.30
20171;DHT22;10245;51.344;6.620;2023-04-24T07:31:36;7.90;90.00
20171;DHT22;10245;51.344;6.620;2023-04-24T07:34:01;7.80;89.70
20171;DHT22;10245;51.344;6.620;2023-04-24T07:36:24;7.80;90.70
20171;DHT22;10245;51.344;6.620;2023-04-24T07:38:48;7.80;91.10
20171;DHT22;10245;51.344;6.620;2023-04-24T07:41:11;7.70;91.30
20171;DHT22;10245;51.344;6.620;2023-04-24T07:43:35;7.70;91.30
20171;DHT22;10245;51.344;6.620;2023-04-24T07:45:58;7.70;91.30
20171;DHT22;10245;51.344;6.620;2023-04-24T07:48:22;7.70;91.10
20171;DHT22;10245;51.344;6.620;2023-04-24T07:50:49;7.60;91.50
20171;DHT22;10245;51.344;6.620;2023-04-24T07:53:12;7.60;92.00
20171;DHT22;10245;51.344;6.620;2023-04-24T07:55:35;7.70;92.40
20171;DHT22;10245;51.344;6.620;2023-04-24T07:57:59;7.70;92.60
20171;DHT22;10245;51.344;6.620;2023-04-24T08:00:22;7.70;92.70
20171;DHT22;10245;51.344;6.620;2023-04-24T08:02:45;7.70;92.50
20171;DHT22;10245;51.344;6.620;2023-04-24T08:05:09;7.80;92.30
20171;DHT22;10245;51.344;6.620;2023-04-24T08:07:34;7.80;92.40
20171;DHT22;10245;51.344;6.620;2023-04-24T08:09:58;7.80;92.90
20171;DHT22;10245;51.344;6.620;2023-04-24T08:12:22;7.90;92.60
20171;DHT22;10245;51.344;6.620;2023-04-24T08:14:45;7.90;92.20
20171;DHT22;10245;51.344;6.620;2023-04-24T08:17:08;7.90;92.60
20171;DHT22;10245;51.344;6.620;2023-04-24T08:19:32;8.00;92.90
20171;DHT22;10245;51.344;6.620;2023-04-24T08:21:55;8.00;92.50
20171;DHT22;10245;51.344;6.620;2023-04-24T08:24:19;8.10;92.60
20171;DHT22;10245;51.344;6.620;2023-04-24T08:26:43;8.00;92.30
20171;DHT22;10245;51.344;6.620;2023-04-24T08:29:06;8.20;92.70
20171;DHT22;10245;51.344;6.620;2023-04-24T08:31:30;8.20;92.50
20171;DHT22;10245;51.344;6.620;2023-04-24T08:33:53;8.20;92.40
20171;DHT22;10245;51.344;6.620;2023-04-24T08:36:16;8.20;92.70
20171;DHT22;10245;51.344;6.620;2023-04-24T08:38:40;8.30;92.80
20171;DHT22;10245;51.344;6.620;2023-04-24T08:41:05;8.30;93.10
20171;DHT22;10245;51.344;6.620;2023-04-24T08:43:31;8.20;92.60
20171;DHT22;10245;51.344;6.620;2023-04-24T08:45:56;8.20;92.70
20171;DHT22;10245;51.344;6.620;2023-04-24T08:48:22;8.20;93.10
20171;DHT22;10245;51.344;6.620;2023-04-24T08:50:53;8.20;93.10
20171;DHT22;10245;51.344;6.620;2023-04-24T08:53:18;8.20;93.20
20171;DHT22;10245;51.344;6.620;2023-04-24T08:55:43;8.30;93.00
20171;DHT22;10245;51.344;6.620;2023-04-24T08:58:11;8.30;92.30
20171;DHT22;10245;51.344;6.620;2023-04-24T09:00:35;8.20;92.10
20171;DHT22;10245;51.344;6.620;2023-04-24T09:03:00;8.30;92.60
20171;DHT22;10245;51.344;6.620;2023-04-24T09:05:25;8.30;92.50
20171;DHT22;10245;51.344;6.620;2023-04-24T09:07:53;8.30;92.40
20171;DHT22;10245;51.344;6.620;2023-04-24T09:10:17;8.20;92.20
20171;DHT22;10245;51.344;6.620;2023-04-24T09:12:41;8.30;92.60
20171;DHT22;10245;51.344;6.620;2023-04-24T09:15:07;8.20;93.00
20171;DHT22;10245;51.344;6.620;2023-04-24T09:17:31;8.00;92.10
20171;DHT22;10245;51.344;6.620;2023-04-24T09:19:56;8.10;92.10
20171;DHT22;10245;51.344;6.620;2023-04-24T09:22:20;8.10;92.10
20171;DHT22;10245;51.344;6.620;2023-04-24T09:24:45;8.10;92.10
20171;DHT22;10245;51.344;6.620;2023-04-24T09:27:11;8.10;92.10
20171;DHT22;10245;51.344;6.620;2023-04-24T09:29:36;8.20;92.30
20171;DHT22;10245;51.344;6.620;2023-04-24T09:32:18;8.20;92.40
20171;DHT22;10245;51.344;6.620;2023-04-24T09:34:47;8.20;92.70
20171;DHT22;10245;51.344;6.620;2023-04-24T09:37:10;8.20;92.60
20171;DHT22;10245;51.344;6.620;2023-04-24T09:39:34;8.20;92.70
20171;DHT22;10245;51.344;6.620;2023-04-24T09:41:57;8.40;93.10
20171;DHT22;10245;51.344;6.620;2023-04-24T09:44:24;8.30;92.90
20171;DHT22;10245;51.344;6.620;2023-04-24T09:46:50;8.40;93.20
20171;DHT22;10245;51.344;6.620;2023-04-24T09:49:16;8.50;93.10
20171;DHT22;10245;51.344;6.620;2023-04-24T09:51:44;8.50;93.00
20171;DHT22;10245;51.344;6.620;2023-04-24T09:54:14;8.50;92.50
20171;DHT22;10245;51.344;6.620;2023-04-24T09:56:42;8.50;92.00
20171;DHT22;10245;51.344;6.620;2023-04-24T09:59:07;8.60;92.60
20171;DHT22;10245;51.344;6.620;2023-04-24T10:01:30;8.60;92.80
20171;DHT22;10245;51.344;6.620;2023-04-24T10:03:54;8.60;92.50
20171;DHT22;10245;51.344;6.620;2023-04-24T10:06:19;8.60;92.40
20171;DHT22;10245;51.344;6.620;2023-04-24T10:08:42;8.70;92.50
20171;DHT22;10245;51.344;6.620;2023-04-24T10:11:08;8.50;91.10
20171;DHT22;10245;51.344;6.620;2023-04-24T10:13:33;8.60;91.80
20171;DHT22;10245;51.344;6.620;2023-04-24T10:15:59;8.50;90.80
20171;DHT22;10245;51.344;6.620;2023-04-24T10:18:24;8.60;91.30
20171;DHT22;10245;51.344;6.620;2023-04-24T10:20:48;8.70;91.60
20171;DHT22;10245;51.344;6.620;2023-04-24T10:23:13;8.50;91.20
20171;DHT22;10245;51.344;6.620;2023-04-24T10:25:36;8.50;91.60
20171;DHT22;10245;51.344;6.620;2023-04-24T10:28:01;8.50;91.60
20171;DHT22;10245;51.344;6.620;2023-04-24T10:30:26;8.50;91.80
20171;DHT22;10245;51.344;6.620;2023-04-24T10:32:51;8.60;92.20
20171;DHT22;10245;51.344;6.620;2023-04-24T10:35:15;8.60;92.00
20171;DHT22;10245;51.344;6.620;2023-04-24T10:37:40;8.60;91.50
20171;DHT22;10245;51.344;6.620;2023-04-24T10:40:09;8.50;92.00
20171;DHT22;10245;51.344;6.620;2023-04-24T10:42:33;8.70;92.00
20171;DHT22;10245;51.344;6.620;2023-04-24T10:44:57;8.60;91.90
20171;DHT22;10245;51.344;6.620;2023-04-24T10:47:20;8.70;92.30
20171;DHT22;10245;51.344;6.620;2023-04-24T10:49:44;8.70;92.00
20171;DHT22;10245;51.344;6.620;2023-04-24T10:52:09;8.80;91.90
20171;DHT22;10245;51.344;6.620;2023-04-24T10:54:41;8.90;91.90
20171;DHT22;10245;51.344;6.620;2023-04-24T10:57:29;9.10;92.20
20171;DHT22;10245;51.344;6.620;2023-04-24T11:00:10;9.10;91.70
20171;DHT22;10245;51.344;6.620;2023-04-24T11:02:38;8.90;89.40
20171;DHT22;10245;51.344;6.620;2023-04-24T11:05:10;8.90;89.70
20171;DHT22;10245;51.344;6.620;2023-04-24T11:08:11;8.90;90.00
20171;DHT22;10245;51.344;6.620;2023-04-24T11:10:38;9.00;90.20
20171;DHT22;10245;51.344;6.620;2023-04-24T11:13:04;9.00;90.00
20171;DHT22;10245;51.344;6.620;2023-04-24T11:15:27;9.10;89.90
20171;DHT22;10245;51.344;6.620;2023-04-24T11:17:55;9.00;88.40
20171;DHT22;10245;51.344;6.620;2023-04-24T11:20:23;9.10;88.30
20171;DHT22;10245;51.344;6.620;2023-04-24T11:23:08;9.30;88.80
20171;DHT22;10245;51.344;6.620;2023-04-24T11:25:31;9.30;85.00
20171;DHT22;10245;51.344;6.620;2023-04-24T11:28:05;9.30;85.10
20171;DHT22;10245;51.344;6.620;2023-04-24T11:30:29;9.50;85.60
20171;DHT22;10245;51.344;6.620;2023-04-24T11:33:02;9.70;85.70
20171;DHT22;10245;51.344;6.620;2023-04-24T11:35:28;9.80;84.60
20171;DHT22;10245;51.344;6.620;2023-04-24T11:37:53;9.80;85.40
20171;DHT22;10245;51.344;6.620;2023-04-24T11:40:21;9.80;85.70
20171;DHT22;10245;51.344;6.620;2023-04-24T11:42:46;9.80;84.60
20171;DHT22;10245;51.344;6.620;2023-04-24T11:45:14;9.70;82.50
20171;DHT22;10245;51.344;6.620;2023-04-24T11:47:39;9.80;83.70
20171;DHT22;10245;51.344;6.620;2023-04-24T11:50:04;9.70;82.30
20171;DHT22;10245;51.344;6.620;2023-04-24T11:52:29;9.70;83.80
20171;DHT22;10245;51.344;6.620;2023-04-24T11:54:53;9.80;83.30
20171;DHT22;10245;51.344;6.620;2023-04-24T11:57:19;9.90;83.80
20171;DHT22;10245;51.344;6.620;2023-04-24T11:59:44;10.00;83.30
20171;DHT22;10245;51.344;6.620;2023-04-24T12:02:20;10.00;84.60
20171;DHT22;10245;51.344;6.620;2023-04-24T12:04:44;9.90;83.70
20171;DHT22;10245;51.344;6.620;2023-04-24T12:07:08;9.70;83.10
20171;DHT22;10245;51.344;6.620;2023-04-24T12:09:41;9.80;84.10
20171;DHT22;10245;51.344;6.620;2023-04-24T12:12:07;9.60;82.10
20171;DHT22;10245;51.344;6.620;2023-04-24T12:14:42;9.50;82.00
20171;DHT22;10245;51.344;6.620;2023-04-24T12:17:12;9.50;82.60
20171;DHT22;10245;51.344;6.620;2023-04-24T12:19:35;9.40;81.50
20171;DHT22;10245;51.344;6.620;2023-04-24T12:22:00;9.50;81.30
20171;DHT22;10245;51.344;6.620;2023-04-24T12:24:23;9.60;80.90
20171;DHT22;10245;51.344;6.620;2023-04-24T12:26:47;9.80;81.60
20171;DHT22;10245;51.344;6.620;2023-04-24T12:29:10;10.00;82.30
20171;DHT22;10245;51.344;6.620;2023-04-24T12:31:34;10.10;81.20
20171;DHT22;10245;51.344;6.620;2023-04-24T12:33:58;10.10;79.60
20171;DHT22;10245;51.344;6.620;2023-04-24T12:36:22;10.10;81.60
20171;DHT22;10245;51.344;6.620;2023-04-24T12:38:45;10.00;77.80
20171;DHT22;10245;51.344;6.620;2023-04-24T12:41:11;10.00;78.00
20171;DHT22;10245;51.344;6.620;2023-04-24T12:43:35;10.00;76.40
20171;DHT22;10245;51.344;6.620;2023-04-24T12:45:59;9.90;75.80
20171;DHT22;10245;51.344;6.620;2023-04-24T12:48:23;9.90;75.50
20171;DHT22;10245;51.344;6.620;2023-04-24T12:50:48;9.90;76.10
20171;DHT22;10245;51.344;6.620;2023-04-24T12:53:11;9.90;75.50
20171;DHT22;10245;51.344;6.620;2023-04-24T12:55:34;9.90;76.00
20171;DHT22;10245;51.344;6.620;2023-04-24T12:57:58;10.00;78.60
20171;DHT22;10245;51.344;6.620;2023-04-24T13:00:21;10.00;76.30
20171;DHT22;10245;51.344;6.620;2023-04-24T13:02:45;10.10;77.30
20171;DHT22;10245;51.344;6.620;2023-04-24T13:05:09;10.20;78.30
20171;DHT22;10245;51.344;6.620;2023-04-24T13:07:34;10.20;76.80
20171;DHT22;10245;51.344;6.620;2023-04-24T13:09:58;10.30;77.00
20171;DHT22;10245;51.344;6.620;2023-04-24T13:12:21;10.30;77.00
20171;DHT22;10245;51.344;6.620;2023-04-24T13:14:45;10.50;78.80
20171;DHT22;10245;51.344;6.620;2023-04-24T13:17:09;10.40;75.00
20171;DHT22;10245;51.344;6.620;2023-04-24T13:19:35;10.40;74.40
20171;DHT22;10245;51.344;6.620;2023-04-24T13:21:59;10.40;73.20
20171;DHT22;10245;51.344;6.620;2023-04-24T13:24:24;10.50;74.20
20171;DHT22;10245;51.344;6.620;2023-04-24T13:26:47;10.60;70.80
20171;DHT22;10245;51.344;6.620;2023-04-24T13:29:11;10.50;72.10
20171;DHT22;10245;51.344;6.620;2023-04-24T13:31:34;10.70;72.10
20171;DHT22;10245;51.344;6.620;2023-04-24T13:33:58;10.70;70.30
20171;DHT22;10245;51.344;6.620;2023-04-24T13:36:21;10.80;72.00
20171;DHT22;10245;51.344;6.620;2023-04-24T13:38:45;11.10;73.30
20171;DHT22;10245;51.344;6.620;2023-04-24T13:41:10;11.10;71.00
20171;DHT22;10245;51.344;6.620;2023-04-24T13:43:33;11.00;70.60
20171;DHT22;10245;51.344;6.620;2023-04-24T13:45:56;10.80;68.80
20171;DHT22;10245;51.344;6.620;2023-04-24T13:48:21;10.80;69.60
20171;DHT22;10245;51.344;6.620;2023-04-24T13:50:44;10.90;70.10
20171;DHT22;10245;51.344;6.620;2023-04-24T13:53:10;11.00;70.80
20171;DHT22;10245;51.344;6.620;2023-04-24T13:55:33;11.20;70.30
20171;DHT22;10245;51.344;6.620;2023-04-24T13:57:58;11.30;70.80
20171;DHT22;10245;51.344;6.620;2023-04-24T14:00:23;11.30;69.80
20171;DHT22;10245;51.344;6.620;2023-04-24T14:02:46;11.20;70.00
20171;DHT22;10245;51.344;6.620;2023-04-24T14:05:10;11.20;71.20
20171;DHT22;10245;51.344;6.620;2023-04-24T14:07:36;11.30;70.00
20171;DHT22;10245;51.344;6.620;2023-04-24T14:10:00;11.20;70.60
20171;DHT22;10245;51.344;6.620;2023-04-24T14:12:23;11.30;70.90
20171;DHT22;10245;51.344;6.620;2023-04-24T14:14:49;11.20;70.00
20171;DHT22;10245;51.344;6.620;2023-04-24T14:17:12;11.10;67.90
20171;DHT22;10245;51.344;6.620;2023-04-24T14:19:35;11.20;68.50
20171;DHT22;10245;51.344;6.620;2023-04-24T14:21:59;11.30;68.30
20171;DHT22;10245;51.344;6.620;2023-04-24T14:24:23;11.30;68.40
20171;DHT22;10245;51.344;6.620;2023-04-24T14:26:46;11.30;69.10
20171;DHT22;10245;51.344;6.620;2023-04-24T14:29:09;11.10;67.10
20171;DHT22;10245;51.344;6.620;2023-04-24T14:31:37;11.10;68.00
20171;DHT22;10245;51.344;6.620;2023-04-24T14:34:01;11.00;65.20
20171;DHT22;10245;51.344;6.620;2023-04-24T14:36:24;11.00;65.80
20171;DHT22;10245;51.344;6.620;2023-04-24T14:38:47;11.00;67.80
20171;DHT22;10245;51.344;6.620;2023-04-24T14:41:11;11.10;67.90
20171;DHT22;10245;51.344;6.620;2023-04-24T14:43:35;11.00;67.20
20171;DHT22;10245;51.344;6.620;2023-04-24T14:45:58;11.00;67.80
20171;DHT22;10245;51.344;6.620;2023-04-24T14:48:23;11.00;67.00
20171;DHT22;10245;51.344;6.620;2023-04-24T14:50:46;11.00;68.00
20171;DHT22;10245;51.344;6.620;2023-04-24T14:53:10;11.00;67.60
20171;DHT22;10245;51.344;6.620;2023-04-24T14:55:33;10.80;66.00
20171;DHT22;10245;51.344;6.620;2023-04-24T14:57:58;11.00;66.90
20171;DHT22;10245;51.344;6.620;2023-04-24T15:00:22;11.00;66.90
20171;DHT22;10245;51.344;6.620;2023-04-24T15:02:46;10.90;67.20
20171;DHT22;10245;51.344;6.620;2023-04-24T15:05:11;11.10;67.20
20171;DHT22;10245;51.344;6.620;2023-04-24T15:07:34;11.10;67.70
20171;DHT22;10245;51.344;6.620;2023-04-24T15:09:58;11.20;67.90
20171;DHT22;10245;51.344;6.620;2023-04-24T15:12:21;11.30;68.30
20171;DHT22;10245;51.344;6.620;2023-04-24T15:14:45;11.30;68.90
20171;DHT22;10245;51.344;6.620;2023-04-24T15:17:08;11.00;67.60
20171;DHT22;10245;51.344;6.620;2023-04-24T15:19:32;11.10;69.00
20171;DHT22;10245;51.344;6.620;2023-04-24T15:21:56;11.60;69.20
20171;DHT22;10245;51.344;6.620;2023-04-24T15:24:19;12.40;69.50
20171;DHT22;10245;51.344;6.620;2023-04-24T15:26:43;12.00;67.60
20171;DHT22;10245;51.344;6.620;2023-04-24T15:29:07;12.30;68.50